Time;durP1;ratioP1;P1;durP2;ratioP2;P2;SDS_P1;SDS_P2;PMS_P1;PMS_P2;Temp;Humidity;BMP_temperature;BMP_pressure;BME280_temperature;BME280_humidity;BME280_pressure;Samples;Min_cycle;Max_cycle;Signal;HPM_P1;HPM_P2
2023/12/01 00:00:45;;;;;;;9.35;6.85;;;;;;;;;;5059741;28;20532;-64
2023/12/01 00:03:11;;;;;;;11.35;8.05;;;;;;;;;;5062960;28;20031;-64
2023/12/01 00:05:38;;;;;;;15.82;9.20;;;;;;;;;;5071016;28;20086;-64
2023/12/01 00:08:04;;;;;;;15.13;9.00;;;;;;;;;;5058461;28;20035;-64
2023/12/01 00:10:30;;;;;;;15.85;8.23;;;;;;;;;;5068253;28;20028;-64
2023/12/01 00:12:56;;;;;;;16.08;9.43;;;;;;;;;;5060780;28;20040;-64
2023/12/01 00:15:22;;;;;;;13.13;7.80;;;;;;;;;;5059585;28;21339;-64
2023/12/01 00:17:49;;;;;;;11.05;6.82;;;;;;;;;;5056130;28;20120;-64
2023/12/01 00:20:15;;;;;;;9.55;7.63;;;;;;;;;;5076853;28;21191;-63
2023/12/01 00:22:42;;;;;;;17.83;8.52;;;;;;;;;;5066730;28;20384;-65
2023/12/01 00:25:08;;;;;;;13.85;8.18;;;;;;;;;;5063919;28;20071;-64
2023/12/01 00:27:34;;;;;;;11.48;6.90;;;;;;;;;;5064844;28;20052;-65
2023/12/01 00:30:00;;;;;;;10.98;6.85;;;;;;;;;;5063903;28;20114;-64
2023/12/01 00:32:26;;;;;;;11.88;6.72;;;;;;;;;;5060762;28;20290;-63
2023/12/01 00:34:52;;;;;;;12.32;7.90;;;;;;;;;;5057736;28;20228;-64
2023/12/01 00:37:18;;;;;;;13.88;7.78;;;;;;;;;;5064309;28;20024;-64
2023/12/01 00:39:44;;;;;;;11.38;7.15;;;;;;;;;;5059202;28;20491;-64
2023/12/01 00:42:13;;;;;;;14.70;9.57;;;;;;;;;;5063069;28;20361;-64
2023/12/01 00:44:39;;;;;;;17.30;11.90;;;;;;;;;;5058242;28;20040;-64
2023/12/01 00:47:05;;;;;;;14.82;9.18;;;;;;;;;;5064475;28;20051;-64
2023/12/01 00:49:31;;;;;;;13.40;9.93;;;;;;;;;;5056110;28;20025;-64
2023/12/01 00:51:57;;;;;;;13.80;9.35;;;;;;;;;;5062479;28;20065;-65
2023/12/01 00:54:23;;;;;;;11.10;8.15;;;;;;;;;;5057016;28;20071;-64
2023/12/01 00:56:50;;;;;;;15.40;7.20;;;;;;;;;;5064566;28;20039;-64
2023/12/01 00:59:16;;;;;;;15.07;8.55;;;;;;;;;;5072929;28;20036;-64
2023/12/01 01:01:42;;;;;;;15.73;8.25;;;;;;;;;;5058350;28;20029;-64
2023/12/01 01:04:08;;;;;;;11.77;7.07;;;;;;;;;;5062128;28;20945;-64
2023/12/01 01:06:34;;;;;;;16.02;8.52;;;;;;;;;;5065763;28;20566;-64
2023/12/01 01:09:00;;;;;;;14.20;7.45;;;;;;;;;;5056920;28;20443;-65
2023/12/01 01:11:26;;;;;;;14.60;7.47;;;;;;;;;;5062766;28;20694;-65
2023/12/01 01:13:53;;;;;;;11.57;6.20;;;;;;;;;;5064429;28;20111;-64
2023/12/01 01:16:19;;;;;;;8.95;7.55;;;;;;;;;;5063405;28;20874;-64
2023/12/01 01:18:45;;;;;;;12.77;7.65;;;;;;;;;;5060505;28;20059;-64
2023/12/01 01:21:11;;;;;;;9.68;7.43;;;;;;;;;;5056174;28;20562;-64
2023/12/01 01:23:38;;;;;;;14.30;7.53;;;;;;;;;;5059946;28;20456;-64
2023/12/01 01:26:04;;;;;;;6.68;5.97;;;;;;;;;;5060825;28;20040;-63
2023/12/01 01:28:30;;;;;;;10.55;6.53;;;;;;;;;;5061023;28;20473;-63
2023/12/01 01:30:57;;;;;;;17.73;7.60;;;;;;;;;;5061345;28;20028;-64
2023/12/01 01:33:23;;;;;;;13.02;9.07;;;;;;;;;;5062084;28;20036;-63
2023/12/01 01:35:50;;;;;;;12.35;7.88;;;;;;;;;;5070481;28;20421;-65
2023/12/01 01:38:16;;;;;;;9.82;6.30;;;;;;;;;;5066453;28;20390;-63
2023/12/01 01:40:43;;;;;;;10.27;6.53;;;;;;;;;;5063363;28;20029;-63
2023/12/01 01:43:09;;;;;;;10.93;6.65;;;;;;;;;;5059957;28;20403;-63
2023/12/01 01:45:35;;;;;;;14.63;7.68;;;;;;;;;;5074714;28;20143;-63
2023/12/01 01:48:02;;;;;;;10.90;7.15;;;;;;;;;;5060160;28;20036;-63
2023/12/01 01:50:28;;;;;;;15.02;7.97;;;;;;;;;;5060373;28;20028;-63
2023/12/01 01:52:55;;;;;;;15.38;8.05;;;;;;;;;;5060960;28;20063;-63
2023/12/01 01:55:21;;;;;;;13.35;7.65;;;;;;;;;;5056170;28;20111;-63
2023/12/01 01:57:48;;;;;;;17.98;9.10;;;;;;;;;;5077921;28;20393;-63
2023/12/01 02:00:18;;;;;;;18.58;9.20;;;;;;;;;;5063137;28;20029;-63
2023/12/01 02:02:46;;;;;;;22.95;11.80;;;;;;;;;;5055508;28;20029;-63
2023/12/01 02:05:13;;;;;;;19.13;10.38;;;;;;;;;;5060094;28;20442;-63
2023/12/01 02:07:39;;;;;;;21.40;10.50;;;;;;;;;;5062499;28;20498;-63
2023/12/01 02:10:06;;;;;;;16.17;8.75;;;;;;;;;;5066939;28;20042;-66
2023/12/01 02:12:32;;;;;;;13.30;8.40;;;;;;;;;;5060336;28;20017;-63
2023/12/01 02:14:58;;;;;;;13.57;8.00;;;;;;;;;;5065080;28;20047;-63
2023/12/01 02:17:24;;;;;;;11.48;8.48;;;;;;;;;;5058573;28;20067;-63
2023/12/01 02:19:51;;;;;;;11.75;7.15;;;;;;;;;;5061377;28;20552;-63
2023/12/01 02:22:17;;;;;;;11.82;6.90;;;;;;;;;;5060633;28;20024;-64
2023/12/01 02:24:44;;;;;;;17.08;7.28;;;;;;;;;;5063174;28;20032;-63
2023/12/01 02:27:10;;;;;;;16.90;8.50;;;;;;;;;;5050375;28;20416;-63
2023/12/01 02:29:36;;;;;;;12.18;7.00;;;;;;;;;;5064101;28;20020;-64
2023/12/01 02:32:02;;;;;;;13.02;7.45;;;;;;;;;;5061656;28;20330;-64
2023/12/01 02:34:28;;;;;;;12.13;7.68;;;;;;;;;;5060679;28;20033;-64
2023/12/01 02:36:58;;;;;;;13.23;7.82;;;;;;;;;;5051241;28;20520;-63
2023/12/01 02:39:24;;;;;;;11.48;7.65;;;;;;;;;;5061453;28;20029;-64
2023/12/01 02:41:51;;;;;;;16.92;7.88;;;;;;;;;;5056188;28;20067;-64
2023/12/01 02:44:17;;;;;;;11.65;8.00;;;;;;;;;;5053872;28;20052;-64
2023/12/01 02:46:43;;;;;;;12.30;8.20;;;;;;;;;;5060716;28;20209;-64
2023/12/01 02:49:09;;;;;;;17.52;8.68;;;;;;;;;;5057883;28;20108;-64
2023/12/01 02:51:38;;;;;;;14.93;8.35;;;;;;;;;;5061060;28;20029;-64
2023/12/01 02:54:08;;;;;;;14.50;7.35;;;;;;;;;;5065765;28;20028;-64
2023/12/01 02:56:34;;;;;;;12.82;7.30;;;;;;;;;;5064262;28;20028;-64
2023/12/01 02:59:03;;;;;;;12.90;8.68;;;;;;;;;;5079791;28;20531;-64
2023/12/01 03:01:29;;;;;;;11.52;8.00;;;;;;;;;;5055283;28;20031;-63
2023/12/01 03:03:55;;;;;;;16.67;8.80;;;;;;;;;;5061681;28;20037;-64
2023/12/01 03:06:24;;;;;;;17.17;9.63;;;;;;;;;;5063642;28;20241;-64
2023/12/01 03:08:50;;;;;;;14.70;8.63;;;;;;;;;;5058277;28;20499;-64
2023/12/01 03:11:21;;;;;;;12.90;8.63;;;;;;;;;;5075588;28;20029;-64
2023/12/01 03:13:47;;;;;;;9.95;7.55;;;;;;;;;;5055131;28;20222;-64
2023/12/01 03:16:13;;;;;;;15.30;8.48;;;;;;;;;;5055937;28;20107;-64
2023/12/01 03:18:40;;;;;;;11.32;8.63;;;;;;;;;;5059798;28;20068;-64
2023/12/01 03:21:12;;;;;;;15.82;9.85;;;;;;;;;;5057378;28;20392;-64
2023/12/01 03:23:40;;;;;;;12.75;8.30;;;;;;;;;;5063760;28;20621;-64
2023/12/01 03:26:08;;;;;;;16.27;8.27;;;;;;;;;;5059094;28;20044;-64
2023/12/01 03:28:34;;;;;;;14.77;9.40;;;;;;;;;;5055115;28;20047;-64
2023/12/01 03:31:00;;;;;;;11.00;8.13;;;;;;;;;;5064433;28;20484;-64
2023/12/01 03:33:26;;;;;;;12.45;7.60;;;;;;;;;;5061602;28;20047;-64
2023/12/01 03:35:53;;;;;;;13.43;7.65;;;;;;;;;;5067542;28;20036;-65
2023/12/01 03:38:19;;;;;;;11.60;7.97;;;;;;;;;;5057355;28;20446;-64
2023/12/01 03:40:45;;;;;;;12.68;7.78;;;;;;;;;;5064850;28;20033;-64
2023/12/01 03:43:11;;;;;;;11.10;8.27;;;;;;;;;;5058059;28;20032;-65
2023/12/01 03:45:37;;;;;;;18.92;8.80;;;;;;;;;;5059971;28;20516;-64
2023/12/01 03:48:04;;;;;;;13.45;8.40;;;;;;;;;;5058190;28;20036;-64
2023/12/01 03:50:30;;;;;;;14.73;8.32;;;;;;;;;;5062208;28;20083;-64
2023/12/01 03:52:56;;;;;;;11.50;8.50;;;;;;;;;;5058524;28;20028;-64
2023/12/01 03:55:23;;;;;;;12.82;7.35;;;;;;;;;;5064624;28;20024;-65
2023/12/01 03:57:49;;;;;;;12.73;7.97;;;;;;;;;;5060479;28;20404;-64
2023/12/01 04:00:16;;;;;;;14.32;8.50;;;;;;;;;;5063486;28;20099;-63
2023/12/01 04:02:44;;;;;;;15.70;8.30;;;;;;;;;;5061259;28;20048;-64
2023/12/01 04:05:17;;;;;;;13.52;7.93;;;;;;;;;;5062154;28;20043;-64
2023/12/01 04:07:44;;;;;;;14.90;8.00;;;;;;;;;;5059703;28;20037;-64
2023/12/01 04:10:10;;;;;;;10.27;8.15;;;;;;;;;;5069248;28;20247;-63
2023/12/01 04:12:44;;;;;;;12.45;8.00;;;;;;;;;;5059515;28;20079;-63
2023/12/01 04:15:12;;;;;;;14.55;7.53;;;;;;;;;;5055911;28;20032;-63
2023/12/01 04:17:42;;;;;;;13.35;8.30;;;;;;;;;;5061721;28;20032;-64
2023/12/01 04:20:20;;;;;;;11.95;8.07;;;;;;;;;;5059153;28;20529;-63
2023/12/01 04:22:48;;;;;;;17.50;9.15;;;;;;;;;;5060751;28;20024;-63
2023/12/01 04:25:14;;;;;;;17.92;9.48;;;;;;;;;;5062483;28;20036;-63
2023/12/01 04:27:40;;;;;;;17.98;8.48;;;;;;;;;;5064944;28;20024;-63
2023/12/01 04:30:13;;;;;;;11.23;8.23;;;;;;;;;;5069903;28;20570;-64
2023/12/01 04:32:41;;;;;;;12.20;9.15;;;;;;;;;;5056305;28;20420;-63
2023/12/01 04:35:07;;;;;;;15.40;10.57;;;;;;;;;;5063912;28;20052;-63
2023/12/01 04:37:33;;;;;;;13.07;8.25;;;;;;;;;;5059466;28;20621;-63
2023/12/01 04:39:59;;;;;;;13.50;8.88;;;;;;;;;;5060706;28;20033;-63
2023/12/01 04:42:25;;;;;;;15.75;9.52;;;;;;;;;;5062196;28;20118;-63
2023/12/01 04:44:51;;;;;;;13.10;8.35;;;;;;;;;;5064871;28;20048;-64
2023/12/01 04:47:18;;;;;;;10.68;7.47;;;;;;;;;;5064850;28;20021;-64
2023/12/01 04:49:45;;;;;;;12.85;7.95;;;;;;;;;;5064844;28;20030;-63
2023/12/01 04:52:11;;;;;;;12.65;7.88;;;;;;;;;;5057120;28;20060;-63
2023/12/01 04:54:37;;;;;;;14.68;7.10;;;;;;;;;;5060251;28;20029;-62
2023/12/01 04:57:03;;;;;;;11.25;7.53;;;;;;;;;;5055839;28;20500;-64
2023/12/01 04:59:29;;;;;;;12.63;8.90;;;;;;;;;;5061158;28;20115;-63
2023/12/01 05:01:56;;;;;;;15.85;8.20;;;;;;;;;;5061367;28;20538;-64
2023/12/01 05:04:22;;;;;;;8.70;6.60;;;;;;;;;;5062558;28;20385;-64
2023/12/01 05:06:48;;;;;;;12.70;7.35;;;;;;;;;;5056410;28;20539;-64
2023/12/01 05:09:17;;;;;;;11.15;7.57;;;;;;;;;;5058679;28;20040;-63
2023/12/01 05:11:44;;;;;;;14.98;8.05;;;;;;;;;;5060634;28;20044;-64
2023/12/01 05:14:10;;;;;;;12.40;8.05;;;;;;;;;;5060662;28;20202;-63
2023/12/01 05:16:37;;;;;;;12.43;8.23;;;;;;;;;;5077168;28;20024;-63
2023/12/01 05:19:05;;;;;;;14.13;7.43;;;;;;;;;;5057439;28;20036;-64
2023/12/01 05:21:32;;;;;;;9.88;7.60;;;;;;;;;;5058931;28;20036;-63
2023/12/01 05:23:58;;;;;;;14.77;9.13;;;;;;;;;;5074508;28;20383;-64
2023/12/01 05:26:25;;;;;;;12.90;7.53;;;;;;;;;;5057139;28;20166;-63
2023/12/01 05:28:51;;;;;;;15.15;7.65;;;;;;;;;;5061032;28;20039;-64
2023/12/01 05:31:17;;;;;;;12.48;7.15;;;;;;;;;;5055320;28;20504;-63
2023/12/01 05:33:46;;;;;;;10.00;6.78;;;;;;;;;;5059352;28;21118;-63
2023/12/01 05:36:16;;;;;;;11.90;8.00;;;;;;;;;;5063538;28;20036;-63
2023/12/01 05:38:44;;;;;;;12.40;7.03;;;;;;;;;;5061176;28;20125;-64
2023/12/01 05:41:10;;;;;;;13.77;7.35;;;;;;;;;;5078275;28;20341;-63
2023/12/01 05:43:39;;;;;;;10.43;7.70;;;;;;;;;;5059381;28;20358;-66
2023/12/01 05:46:06;;;;;;;14.77;7.38;;;;;;;;;;5058884;28;20528;-64
2023/12/01 05:48:33;;;;;;;15.32;7.82;;;;;;;;;;5059970;28;20492;-63
2023/12/01 05:50:59;;;;;;;11.27;7.70;;;;;;;;;;5059994;28;20033;-64
2023/12/01 05:53:26;;;;;;;12.95;7.57;;;;;;;;;;5061004;28;20028;-64
2023/12/01 05:55:52;;;;;;;13.35;7.32;;;;;;;;;;5059896;28;20032;-63
2023/12/01 05:58:18;;;;;;;13.73;8.43;;;;;;;;;;5065931;28;20036;-63
2023/12/01 06:00:44;;;;;;;9.88;7.30;;;;;;;;;;5057149;28;20492;-63
2023/12/01 06:03:11;;;;;;;11.27;5.93;;;;;;;;;;5059243;28;20162;-63
2023/12/01 06:05:37;;;;;;;10.73;6.60;;;;;;;;;;5056412;28;20058;-63
2023/12/01 06:08:04;;;;;;;9.40;7.25;;;;;;;;;;5065568;28;20036;-63
2023/12/01 06:10:31;;;;;;;13.80;7.93;;;;;;;;;;5078685;28;20062;-62
2023/12/01 06:13:00;;;;;;;10.70;7.30;;;;;;;;;;5061749;28;20028;-63
2023/12/01 06:15:30;;;;;;;15.65;9.02;;;;;;;;;;5065679;28;20025;-63
2023/12/01 06:18:00;;;;;;;13.55;8.32;;;;;;;;;;5062151;28;20055;-62
2023/12/01 06:20:27;;;;;;;11.52;6.80;;;;;;;;;;5073116;28;20383;-63
2023/12/01 06:22:57;;;;;;;16.83;7.53;;;;;;;;;;5057677;28;20948;-62
2023/12/01 06:25:28;;;;;;;12.52;7.97;;;;;;;;;;5060436;28;20404;-63
2023/12/01 06:27:58;;;;;;;12.02;7.28;;;;;;;;;;5059685;28;20032;-63
2023/12/01 06:30:25;;;;;;;8.82;7.25;;;;;;;;;;5061478;28;20056;-62
2023/12/01 06:32:51;;;;;;;12.63;7.25;;;;;;;;;;5062130;28;20495;-63
2023/12/01 06:35:19;;;;;;;8.95;7.57;;;;;;;;;;5063311;28;20506;-64
2023/12/01 06:37:46;;;;;;;9.60;6.25;;;;;;;;;;5057108;28;20492;-63
2023/12/01 06:40:15;;;;;;;13.57;7.63;;;;;;;;;;5052966;28;20198;-62
2023/12/01 06:43:09;;;;;;;9.73;6.25;;;;;;;;;;5061823;28;20040;-65
2023/12/01 06:45:37;;;;;;;8.00;6.20;;;;;;;;;;5060951;28;20036;-62
2023/12/01 06:48:03;;;;;;;11.60;8.45;;;;;;;;;;5066454;28;20056;-63
2023/12/01 06:50:30;;;;;;;17.42;8.63;;;;;;;;;;5056727;28;20575;-63
2023/12/01 06:53:00;;;;;;;11.35;6.72;;;;;;;;;;5061092;28;20039;-63
2023/12/01 06:55:26;;;;;;;10.73;6.63;;;;;;;;;;5049673;28;20370;-63
2023/12/01 06:57:53;;;;;;;10.40;6.60;;;;;;;;;;5056839;28;20511;-63
2023/12/01 07:00:39;;;;;;;10.82;7.32;;;;;;;;;;5055655;28;20054;-64
2023/12/01 07:03:09;;;;;;;14.27;7.53;;;;;;;;;;5061853;28;20589;-63
2023/12/01 07:05:37;;;;;;;14.02;9.02;;;;;;;;;;5054045;28;20021;-63
2023/12/01 07:08:04;;;;;;;12.30;8.50;;;;;;;;;;5062715;28;20036;-63
2023/12/01 07:10:32;;;;;;;12.52;7.38;;;;;;;;;;5076844;28;20033;-63
2023/12/01 07:13:01;;;;;;;12.70;7.93;;;;;;;;;;5068335;28;20047;-63
2023/12/01 07:15:29;;;;;;;10.65;7.32;;;;;;;;;;5075270;28;20020;-63
2023/12/01 07:17:56;;;;;;;10.02;6.47;;;;;;;;;;5056944;28;20025;-64
2023/12/01 07:20:23;;;;;;;9.73;7.28;;;;;;;;;;5063840;28;20380;-63
2023/12/01 07:22:51;;;;;;;11.27;6.60;;;;;;;;;;5065074;28;20124;-63
2023/12/01 07:25:25;;;;;;;25.55;7.25;;;;;;;;;;5060712;28;20030;-63
2023/12/01 07:27:54;;;;;;;11.98;6.68;;;;;;;;;;5056518;28;20033;-66
2023/12/01 07:30:20;;;;;;;11.55;7.85;;;;;;;;;;5054694;28;20029;-63
2023/12/01 07:32:47;;;;;;;11.52;7.78;;;;;;;;;;5064895;28;20025;-63
2023/12/01 07:35:14;;;;;;;9.00;6.72;;;;;;;;;;5061944;28;20399;-63
2023/12/01 07:37:42;;;;;;;12.63;6.85;;;;;;;;;;5073009;28;20059;-63
2023/12/01 07:40:11;;;;;;;11.20;6.78;;;;;;;;;;5061923;28;20498;-63
2023/12/01 07:42:38;;;;;;;8.05;6.22;;;;;;;;;;5059111;28;20712;-63
2023/12/01 07:45:05;;;;;;;11.68;7.85;;;;;;;;;;5076064;28;20045;-63
2023/12/01 07:47:31;;;;;;;15.10;7.60;;;;;;;;;;5068621;28;20039;-63
2023/12/01 07:49:59;;;;;;;8.95;6.55;;;;;;;;;;5067559;28;20575;-63
2023/12/01 07:52:25;;;;;;;11.77;6.25;;;;;;;;;;5063846;28;20021;-64
2023/12/01 07:54:52;;;;;;;10.73;7.05;;;;;;;;;;5063351;28;20526;-63
2023/12/01 07:57:18;;;;;;;7.88;6.80;;;;;;;;;;5076654;28;20107;-63
2023/12/01 07:59:44;;;;;;;14.23;6.97;;;;;;;;;;5066581;28;20085;-64
2023/12/01 08:02:10;;;;;;;7.13;6.35;;;;;;;;;;5065662;28;20385;-63
2023/12/01 08:04:36;;;;;;;11.98;7.93;;;;;;;;;;5064087;28;20032;-63
2023/12/01 08:07:03;;;;;;;14.88;7.05;;;;;;;;;;5057581;28;20693;-63
2023/12/01 08:09:32;;;;;;;11.38;8.00;;;;;;;;;;5056345;28;20577;-62
2023/12/01 08:11:59;;;;;;;13.15;6.43;;;;;;;;;;5077883;28;20024;-63
2023/12/01 08:14:25;;;;;;;10.60;7.75;;;;;;;;;;5081091;28;20027;-63
2023/12/01 08:16:52;;;;;;;15.85;7.30;;;;;;;;;;5063032;28;20235;-63
2023/12/01 08:19:18;;;;;;;14.48;7.75;;;;;;;;;;5067191;28;20471;-63
2023/12/01 08:21:45;;;;;;;9.38;6.30;;;;;;;;;;5060364;28;20594;-62
2023/12/01 08:24:11;;;;;;;12.20;7.30;;;;;;;;;;5062912;28;20027;-63
2023/12/01 08:26:38;;;;;;;9.68;7.13;;;;;;;;;;5058246;28;20028;-62
2023/12/01 08:29:04;;;;;;;13.75;7.25;;;;;;;;;;5059842;28;20503;-62
2023/12/01 08:31:31;;;;;;;14.15;8.25;;;;;;;;;;5060945;28;20757;-64
2023/12/01 08:33:57;;;;;;;10.32;6.97;;;;;;;;;;5067950;28;20029;-62
2023/12/01 08:36:24;;;;;;;14.20;7.95;;;;;;;;;;5059242;28;20146;-62
2023/12/01 08:38:50;;;;;;;12.65;7.97;;;;;;;;;;5059179;28;20064;-62
2023/12/01 08:41:17;;;;;;;10.55;7.20;;;;;;;;;;5063888;28;20032;-62
2023/12/01 08:43:43;;;;;;;10.32;7.80;;;;;;;;;;5062632;28;20124;-62
2023/12/01 08:46:09;;;;;;;12.68;7.70;;;;;;;;;;5060531;28;20028;-62
2023/12/01 08:48:35;;;;;;;12.15;7.47;;;;;;;;;;5077207;28;20036;-62
2023/12/01 08:51:02;;;;;;;12.27;6.95;;;;;;;;;;5056535;28;20029;-62
2023/12/01 08:53:28;;;;;;;13.27;7.20;;;;;;;;;;5061556;28;20025;-63
2023/12/01 08:55:56;;;;;;;9.98;7.40;;;;;;;;;;5057116;28;20021;-62
2023/12/01 08:58:25;;;;;;;16.45;9.02;;;;;;;;;;5066293;28;20350;-63
2023/12/01 09:00:51;;;;;;;12.35;7.18;;;;;;;;;;5062151;28;20024;-62
2023/12/01 09:03:18;;;;;;;11.73;7.10;;;;;;;;;;5064193;28;20058;-63
2023/12/01 09:05:44;;;;;;;11.07;8.57;;;;;;;;;;5067721;28;20028;-62
2023/12/01 09:08:11;;;;;;;13.60;8.27;;;;;;;;;;5069269;28;20111;-63
2023/12/01 09:10:38;;;;;;;10.00;7.63;;;;;;;;;;5058634;28;20569;-63
2023/12/01 09:13:04;;;;;;;12.30;6.20;;;;;;;;;;5066027;28;20028;-63
2023/12/01 09:15:31;;;;;;;13.60;7.28;;;;;;;;;;5062871;28;20377;-63
2023/12/01 09:17:57;;;;;;;10.52;7.85;;;;;;;;;;5062678;28;20027;-63
2023/12/01 09:20:23;;;;;;;12.60;7.30;;;;;;;;;;5074773;28;20518;-63
2023/12/01 09:22:50;;;;;;;12.50;6.85;;;;;;;;;;5058230;28;20028;-64
2023/12/01 09:25:16;;;;;;;7.22;6.43;;;;;;;;;;5055681;28;20439;-63
2023/12/01 09:27:42;;;;;;;12.85;7.25;;;;;;;;;;5064042;28;20028;-63
2023/12/01 09:30:13;;;;;;;9.70;6.00;;;;;;;;;;5060103;28;20033;-63
2023/12/01 09:32:40;;;;;;;12.80;7.15;;;;;;;;;;5058374;28;20055;-63
2023/12/01 09:35:06;;;;;;;13.50;7.82;;;;;;;;;;5051915;28;20594;-63
2023/12/01 09:37:32;;;;;;;11.52;7.70;;;;;;;;;;5061830;28;20503;-64
2023/12/01 09:39:58;;;;;;;10.80;6.88;;;;;;;;;;5054608;28;20032;-64
2023/12/01 09:42:25;;;;;;;10.73;7.78;;;;;;;;;;5053385;28;20036;-63
2023/12/01 09:44:54;;;;;;;15.45;7.35;;;;;;;;;;5051562;28;20087;-63
2023/12/01 09:47:22;;;;;;;11.18;7.07;;;;;;;;;;5051566;28;20115;-64
2023/12/01 09:49:52;;;;;;;8.13;7.20;;;;;;;;;;5052321;28;20037;-63
2023/12/01 09:52:18;;;;;;;9.50;7.10;;;;;;;;;;5051286;28;20032;-63
2023/12/01 09:54:44;;;;;;;20.95;8.13;;;;;;;;;;5052669;28;20021;-63
2023/12/01 09:57:10;;;;;;;11.50;8.27;;;;;;;;;;5053128;28;20110;-63
2023/12/01 09:59:37;;;;;;;16.30;8.85;;;;;;;;;;5055202;28;20056;-63
2023/12/01 10:02:04;;;;;;;13.55;8.25;;;;;;;;;;5050521;28;20032;-63
2023/12/01 10:04:34;;;;;;;12.90;7.97;;;;;;;;;;5052212;28;20036;-63
2023/12/01 10:07:03;;;;;;;12.30;8.18;;;;;;;;;;5051682;28;20033;-63
2023/12/01 10:09:32;;;;;;;13.55;6.97;;;;;;;;;;5053625;28;20048;-64
2023/12/01 10:12:12;;;;;;;10.77;6.80;;;;;;;;;;5067988;28;21993;-63
2023/12/01 10:14:42;;;;;;;9.48;7.68;;;;;;;;;;5053124;28;20019;-63
2023/12/01 10:17:08;;;;;;;19.17;9.13;;;;;;;;;;5052560;28;20024;-63
2023/12/01 10:19:44;;;;;;;13.25;7.50;;;;;;;;;;5057482;28;20032;-63
2023/12/01 10:22:11;;;;;;;11.95;8.85;;;;;;;;;;5063007;28;20047;-64
2023/12/01 10:24:37;;;;;;;10.90;7.65;;;;;;;;;;5059046;28;20033;-65
2023/12/01 10:27:08;;;;;;;10.80;6.97;;;;;;;;;;5084147;27;20032;-64
2023/12/01 10:29:35;;;;;;;9.45;7.20;;;;;;;;;;5058326;28;20036;-64
2023/12/01 10:32:02;;;;;;;15.15;7.20;;;;;;;;;;5062252;28;20192;-64
2023/12/01 10:34:29;;;;;;;11.77;7.55;;;;;;;;;;5059623;28;20047;-64
2023/12/01 10:36:55;;;;;;;17.02;7.45;;;;;;;;;;5060687;28;20033;-64
2023/12/01 10:39:24;;;;;;;13.60;8.50;;;;;;;;;;5058438;28;20110;-63
2023/12/01 10:41:50;;;;;;;13.88;7.95;;;;;;;;;;5060672;28;20033;-63
2023/12/01 10:44:17;;;;;;;8.90;7.72;;;;;;;;;;5075756;28;20134;-68
2023/12/01 10:46:46;;;;;;;14.18;8.90;;;;;;;;;;5066726;28;20067;-68
2023/12/01 10:49:14;;;;;;;15.10;8.13;;;;;;;;;;5061086;28;20028;-68
2023/12/01 10:51:41;;;;;;;10.35;7.05;;;;;;;;;;5065332;28;20094;-69
2023/12/01 10:54:10;;;;;;;12.55;7.22;;;;;;;;;;5054481;28;20060;-68
2023/12/01 10:56:40;;;;;;;12.15;7.22;;;;;;;;;;5067760;28;20429;-69
2023/12/01 10:59:08;;;;;;;12.00;8.48;;;;;;;;;;5061146;28;20189;-68
2023/12/01 11:01:36;;;;;;;12.70;7.88;;;;;;;;;;5062618;28;20032;-69
2023/12/01 11:04:06;;;;;;;14.10;7.78;;;;;;;;;;5055080;28;20056;-68
2023/12/01 11:07:05;;;;;;;13.52;8.88;;;;;;;;;;5054364;28;20033;-68
2023/12/01 11:09:40;;;;;;;14.10;8.38;;;;;;;;;;5039604;28;20036;-68
2023/12/01 11:12:13;;;;;;;10.52;7.22;;;;;;;;;;5054428;28;20680;-69
2023/12/01 11:14:39;;;;;;;11.18;7.63;;;;;;;;;;5052987;28;20036;-69
2023/12/01 11:17:06;;;;;;;11.00;7.47;;;;;;;;;;5049036;28;20037;-69
2023/12/01 11:19:39;;;;;;;10.07;6.88;;;;;;;;;;5053164;28;20028;-69
2023/12/01 11:22:26;;;;;;;14.07;7.22;;;;;;;;;;5052920;28;20038;-69
2023/12/01 11:24:52;;;;;;;10.30;7.22;;;;;;;;;;5047906;28;20029;-69
2023/12/01 11:27:19;;;;;;;10.50;7.45;;;;;;;;;;5065336;28;20025;-69
2023/12/01 11:30:08;;;;;;;8.70;7.28;;;;;;;;;;5054897;28;20028;-68
2023/12/01 11:32:39;;;;;;;9.70;7.10;;;;;;;;;;5063321;28;20077;-69
2023/12/01 11:35:08;;;;;;;13.55;7.57;;;;;;;;;;5053272;28;20668;-69
2023/12/01 11:37:53;;;;;;;13.85;6.32;;;;;;;;;;5055994;28;20037;-69
2023/12/01 11:40:23;;;;;;;12.53;7.87;;;;;;;;;;5064997;28;20048;-70
2023/12/01 11:42:52;;;;;;;11.85;7.70;;;;;;;;;;5048539;28;20028;-69
2023/12/01 11:45:35;;;;;;;9.88;6.65;;;;;;;;;;5049132;28;20053;-69
2023/12/01 11:48:02;;;;;;;8.60;6.70;;;;;;;;;;5050305;28;20044;-69
2023/12/01 11:50:29;;;;;;;9.52;6.72;;;;;;;;;;5053314;28;20025;-69
2023/12/01 11:52:55;;;;;;;11.82;6.75;;;;;;;;;;5063811;28;20099;-69
2023/12/01 11:55:22;;;;;;;7.85;5.88;;;;;;;;;;5047935;28;20423;-68
2023/12/01 11:57:53;;;;;;;9.27;6.18;;;;;;;;;;5050599;28;20028;-69
2023/12/01 12:00:19;;;;;;;9.35;6.32;;;;;;;;;;5053717;28;20024;-69
2023/12/01 12:02:46;;;;;;;8.07;6.05;;;;;;;;;;5069405;28;20021;-69
2023/12/01 12:05:12;;;;;;;10.98;6.22;;;;;;;;;;5057583;28;20076;-69
2023/12/01 12:07:41;;;;;;;8.85;6.60;;;;;;;;;;5066334;28;20611;-70
2023/12/01 12:10:07;;;;;;;6.88;5.25;;;;;;;;;;5047979;28;20039;-69
2023/12/01 12:12:34;;;;;;;12.27;6.75;;;;;;;;;;5063285;28;20024;-69
2023/12/01 12:15:09;;;;;;;10.05;6.25;;;;;;;;;;5062124;28;20028;-69
2023/12/01 12:17:37;;;;;;;8.55;5.97;;;;;;;;;;5067459;28;20495;-69
2023/12/01 12:20:05;;;;;;;10.27;5.65;;;;;;;;;;5064833;28;20365;-69
2023/12/01 12:22:31;;;;;;;7.88;5.32;;;;;;;;;;5065544;28;20024;-69
2023/12/01 12:24:57;;;;;;;10.50;6.75;;;;;;;;;;5082923;28;20060;-69
2023/12/01 12:27:23;;;;;;;7.28;5.40;;;;;;;;;;5064799;28;20056;-69
2023/12/01 12:29:52;;;;;;;10.25;5.30;;;;;;;;;;5067815;28;20067;-69
2023/12/01 12:32:18;;;;;;;12.07;6.53;;;;;;;;;;5060041;28;20476;-68
2023/12/01 12:34:45;;;;;;;8.45;6.13;;;;;;;;;;5062952;28;20032;-70
2023/12/01 12:37:11;;;;;;;13.77;7.82;;;;;;;;;;5064023;28;20028;-69
2023/12/01 12:39:38;;;;;;;20.40;11.27;;;;;;;;;;5062574;28;20047;-69
2023/12/01 12:42:04;;;;;;;22.77;12.85;;;;;;;;;;5069557;28;20039;-69
2023/12/01 12:44:30;;;;;;;12.23;7.50;;;;;;;;;;5063479;28;20048;-69
2023/12/01 12:47:03;;;;;;;16.80;9.25;;;;;;;;;;5053148;28;20503;-69
2023/12/01 12:49:33;;;;;;;16.67;8.90;;;;;;;;;;5051314;28;20029;-69
2023/12/01 12:51:59;;;;;;;11.07;7.18;;;;;;;;;;5054157;28;20040;-70
2023/12/01 12:54:26;;;;;;;7.03;5.97;;;;;;;;;;5054632;28;20032;-70
2023/12/01 12:56:52;;;;;;;9.60;7.32;;;;;;;;;;5056975;28;20768;-70
2023/12/01 12:59:19;;;;;;;85.63;64.32;;;;;;;;;;5049989;28;20262;-69
2023/12/01 13:01:45;;;;;;;13.63;11.20;;;;;;;;;;5047971;28;20481;-70
2023/12/01 13:04:12;;;;;;;9.75;6.85;;;;;;;;;;5048059;28;20041;-70
2023/12/01 13:06:39;;;;;;;11.50;7.57;;;;;;;;;;5054061;28;20032;-70
2023/12/01 13:09:05;;;;;;;12.93;8.27;;;;;;;;;;5052294;28;20075;-69
2023/12/01 13:11:31;;;;;;;9.25;7.18;;;;;;;;;;5048456;28;20032;-70
2023/12/01 13:13:58;;;;;;;12.38;6.25;;;;;;;;;;5059106;28;20032;-69
2023/12/01 13:16:24;;;;;;;12.15;7.15;;;;;;;;;;5049062;28;20929;-70
2023/12/01 13:18:50;;;;;;;10.45;6.55;;;;;;;;;;5050875;28;20036;-70
2023/12/01 13:21:16;;;;;;;10.93;6.82;;;;;;;;;;5050954;28;20052;-70
2023/12/01 13:23:42;;;;;;;8.82;7.00;;;;;;;;;;5052905;28;20068;-70
2023/12/01 13:26:08;;;;;;;11.15;7.65;;;;;;;;;;5058999;28;20473;-70
2023/12/01 13:28:34;;;;;;;9.45;7.03;;;;;;;;;;5053584;28;20748;-70
2023/12/01 13:31:01;;;;;;;10.90;9.35;;;;;;;;;;5049932;28;20025;-70
2023/12/01 13:33:27;;;;;;;9.65;7.88;;;;;;;;;;5052314;28;20714;-70
2023/12/01 13:35:53;;;;;;;7.05;6.32;;;;;;;;;;5064425;28;20033;-70
2023/12/01 13:38:19;;;;;;;8.20;5.72;;;;;;;;;;5051169;28;20055;-71
2023/12/01 13:40:46;;;;;;;8.27;6.13;;;;;;;;;;5045436;28;20409;-70
2023/12/01 13:43:12;;;;;;;9.23;6.57;;;;;;;;;;5050338;28;20032;-70
2023/12/01 13:45:38;;;;;;;7.93;5.78;;;;;;;;;;5051129;28;20095;-70
2023/12/01 13:48:05;;;;;;;9.18;5.72;;;;;;;;;;5049986;28;20194;-69
2023/12/01 13:50:31;;;;;;;11.25;5.95;;;;;;;;;;5048748;28;20033;-69
2023/12/01 13:52:57;;;;;;;10.10;5.85;;;;;;;;;;5050277;28;20514;-68
2023/12/01 13:55:24;;;;;;;8.45;5.50;;;;;;;;;;5056422;28;20476;-70
2023/12/01 13:57:50;;;;;;;10.75;5.43;;;;;;;;;;5058743;28;20266;-68
2023/12/01 14:00:17;;;;;;;7.25;5.95;;;;;;;;;;5056459;28;20511;-70
2023/12/01 14:02:44;;;;;;;7.18;4.75;;;;;;;;;;5060495;28;20989;-69
2023/12/01 14:05:11;;;;;;;7.82;5.10;;;;;;;;;;5054814;28;20426;-69
2023/12/01 14:07:37;;;;;;;8.48;5.45;;;;;;;;;;5066789;28;20476;-69
2023/12/01 14:10:04;;;;;;;7.78;4.63;;;;;;;;;;5061025;28;20097;-70
2023/12/01 14:12:30;;;;;;;7.55;5.72;;;;;;;;;;5060066;28;20058;-69
2023/12/01 14:14:56;;;;;;;7.32;5.10;;;;;;;;;;5064823;28;20054;-70
2023/12/01 14:17:22;;;;;;;7.57;4.57;;;;;;;;;;5067191;28;20043;-71
2023/12/01 14:19:48;;;;;;;7.45;4.70;;;;;;;;;;5070979;28;20020;-70
2023/12/01 14:22:15;;;;;;;7.72;5.57;;;;;;;;;;5059653;28;20489;-70
2023/12/01 14:24:41;;;;;;;15.30;8.15;;;;;;;;;;5058779;28;20050;-69
2023/12/01 14:27:08;;;;;;;10.57;7.20;;;;;;;;;;5061140;28;20119;-70
2023/12/01 14:29:35;;;;;;;8.75;5.68;;;;;;;;;;5074922;28;20031;-69
2023/12/01 14:32:02;;;;;;;7.68;5.68;;;;;;;;;;5053753;28;20032;-70
2023/12/01 14:34:28;;;;;;;7.20;5.85;;;;;;;;;;5058980;28;20025;-69